createdAt,value
2023-02-16T00:00:17.811Z,84.08
2023-02-16T00:01:20.925Z,84.17
2023-02-16T00:02:24.365Z,84.20
2023-02-16T00:04:00.255Z,84.27
2023-02-16T00:05:03.315Z,84.32
2023-02-16T00:06:06.690Z,84.31
2023-02-16T00:07:42.201Z,84.29
2023-02-16T00:08:45.060Z,84.29
2023-02-16T00:09:48.403Z,84.26
2023-02-16T00:11:23.361Z,84.26
2023-02-16T00:12:26.414Z,84.23
2023-02-16T00:13:29.543Z,84.24
2023-02-16T00:15:04.512Z,84.36
2023-02-16T00:16:07.811Z,84.31
2023-02-16T00:17:11.445Z,84.22
2023-02-16T00:18:46.753Z,84.14
2023-02-16T00:19:50.050Z,84.09
2023-02-16T00:20:53.374Z,84.12
2023-02-16T00:22:29.170Z,84.10
2023-02-16T00:23:32.306Z,84.03
2023-02-16T00:24:35.920Z,84.06
2023-02-16T00:26:11.149Z,84.04
2023-02-16T00:27:14.326Z,84.21
2023-02-16T00:28:17.303Z,84.24
2023-02-16T00:29:52.807Z,84.46
2023-02-16T00:30:56.779Z,84.45
2023-02-16T00:32:01.749Z,84.48
2023-02-16T00:33:37.972Z,84.47
2023-02-16T00:34:41.339Z,84.58
2023-02-16T00:35:44.513Z,84.62
2023-02-16T00:37:19.597Z,84.68
2023-02-16T00:38:22.945Z,84.63
2023-02-16T00:39:25.953Z,84.59
2023-02-16T00:41:01.560Z,84.69
2023-02-16T00:42:04.852Z,84.70
2023-02-16T00:43:08.033Z,84.69
2023-02-16T00:44:43.537Z,84.77
2023-02-16T00:45:46.789Z,85.03
2023-02-16T00:46:50.063Z,84.98
2023-02-16T00:48:25.155Z,85.09
2023-02-16T00:49:31.453Z,85.09
2023-02-16T00:50:35.010Z,85.20
2023-02-16T00:52:18.308Z,85.19
2023-02-16T00:53:21.758Z,85.18
2023-02-16T00:54:25.013Z,85.17
2023-02-16T00:56:01.775Z,85.21
2023-02-16T00:57:04.854Z,85.23
2023-02-16T00:58:08.250Z,85.22
2023-02-16T00:59:43.305Z,85.45
2023-02-16T01:00:17.444Z,85.45
2023-02-16T01:01:20.766Z,85.40
2023-02-16T01:02:23.947Z,85.39
2023-02-16T01:03:58.863Z,85.44
2023-02-16T01:05:02.187Z,85.47
2023-02-16T01:06:05.290Z,85.54
2023-02-16T01:07:40.690Z,85.66
2023-02-16T01:08:43.718Z,85.78
2023-02-16T01:09:47.038Z,85.94
2023-02-16T01:11:22.112Z,86.03
2023-02-16T01:12:25.278Z,85.96
2023-02-16T01:13:28.403Z,85.98
2023-02-16T01:15:03.904Z,86.01
2023-02-16T01:16:07.293Z,86.03
2023-02-16T01:17:10.730Z,86.03
2023-02-16T01:18:45.754Z,86.14
2023-02-16T01:19:49.051Z,86.21
2023-02-16T01:20:52.100Z,86.57
2023-02-16T01:22:27.544Z,86.86
2023-02-16T01:23:30.781Z,86.69
2023-02-16T01:24:34.075Z,86.72
2023-02-16T01:26:09.388Z,86.61
2023-02-16T01:27:12.599Z,86.49
2023-02-16T01:28:15.865Z,86.43
2023-02-16T01:29:50.928Z,86.42
2023-02-16T01:30:54.676Z,86.41
2023-02-16T01:31:59.323Z,86.53
2023-02-16T01:33:35.333Z,86.59
2023-02-16T01:34:38.418Z,86.76
2023-02-16T01:35:41.730Z,86.74
2023-02-16T01:37:16.592Z,86.97
2023-02-16T01:38:19.642Z,87.04
2023-02-16T01:39:22.787Z,87.14
2023-02-16T01:40:58.073Z,87.31
2023-02-16T01:42:01.591Z,87.33
2023-02-16T01:43:04.961Z,87.24
2023-02-16T01:44:40.523Z,87.21
2023-02-16T01:45:43.798Z,87.26
2023-02-16T01:46:47.322Z,87.37
2023-02-16T01:48:23.176Z,87.36
2023-02-16T01:49:26.282Z,87.32
2023-02-16T01:50:29.630Z,87.45
2023-02-16T01:52:04.829Z,87.67
2023-02-16T01:53:07.961Z,87.67
2023-02-16T01:54:11.165Z,87.98
2023-02-16T01:55:46.128Z,88.04
2023-02-16T01:56:49.424Z,88.01
2023-02-16T01:57:52.712Z,87.87
2023-02-16T01:59:27.873Z,87.83
2023-02-16T02:00:18.475Z,87.76
2023-02-16T02:01:22.082Z,87.75
2023-02-16T02:02:25.889Z,87.82
2023-02-16T02:04:01.626Z,87.71
2023-02-16T02:05:04.865Z,87.62
2023-02-16T02:06:08.100Z,87.61
2023-02-16T02:07:43.558Z,87.59
2023-02-16T02:08:46.578Z,87.43
2023-02-16T02:09:50.032Z,87.41
2023-02-16T02:11:25.228Z,87.37
2023-02-16T02:12:28.500Z,87.42
2023-02-16T02:13:31.857Z,87.42
2023-02-16T02:15:07.228Z,87.45
2023-02-16T02:16:10.654Z,87.45
2023-02-16T02:17:14.210Z,87.51
2023-02-16T02:18:49.312Z,87.59
2023-02-16T02:19:52.419Z,87.60
2023-02-16T02:20:55.856Z,87.63
2023-02-16T02:22:31.224Z,87.68
2023-02-16T02:23:34.397Z,87.68
2023-02-16T02:24:37.412Z,87.70
2023-02-16T02:26:12.632Z,87.66
2023-02-16T02:27:15.832Z,87.65
2023-02-16T02:28:18.932Z,87.71
2023-02-16T02:29:54.096Z,87.75
2023-02-16T02:30:57.557Z,87.66
2023-02-16T02:32:02.545Z,87.72
2023-02-16T02:33:38.028Z,87.81
2023-02-16T02:34:41.295Z,87.78
2023-02-16T02:35:44.610Z,87.65
2023-02-16T02:37:19.772Z,87.64
2023-02-16T02:38:22.847Z,87.63
2023-02-16T02:39:26.049Z,87.65
2023-02-16T02:41:01.764Z,87.59
2023-02-16T02:42:04.823Z,87.61
2023-02-16T02:43:08.102Z,87.55
2023-02-16T02:44:43.261Z,87.62
2023-02-16T02:45:46.622Z,87.62
2023-02-16T02:46:49.975Z,87.54
2023-02-16T02:48:25.163Z,87.45
2023-02-16T02:49:28.233Z,87.44
2023-02-16T02:50:31.479Z,87.45
2023-02-16T02:52:06.903Z,87.44
2023-02-16T02:53:10.276Z,87.51
2023-02-16T02:54:13.750Z,87.74
2023-02-16T02:55:48.842Z,87.87
2023-02-16T02:56:52.138Z,87.94
2023-02-16T02:57:55.663Z,87.98
2023-02-16T02:59:30.567Z,87.95
2023-02-16T03:00:17.762Z,87.99
2023-02-16T03:01:21.012Z,88.01
2023-02-16T03:02:24.447Z,88.01
2023-02-16T03:03:59.723Z,88.05
2023-02-16T03:05:02.830Z,88.03
2023-02-16T03:06:06.024Z,88.11
2023-02-16T03:07:41.436Z,88.10
2023-02-16T03:08:44.716Z,88.11
2023-02-16T03:09:47.946Z,88.10
2023-02-16T03:11:23.370Z,88.20
2023-02-16T03:12:28.906Z,88.24
2023-02-16T03:13:32.122Z,88.27
2023-02-16T03:15:07.330Z,88.32
2023-02-16T03:16:10.742Z,88.44
2023-02-16T03:17:14.050Z,88.40
2023-02-16T03:18:49.337Z,88.49
2023-02-16T03:19:52.671Z,88.50
2023-02-16T03:20:55.801Z,88.51
2023-02-16T03:22:31.094Z,88.51
2023-02-16T03:23:34.301Z,88.53
2023-02-16T03:24:37.506Z,88.52
2023-02-16T03:26:13.121Z,88.55
2023-02-16T03:27:16.378Z,88.53
2023-02-16T03:28:19.796Z,88.58
2023-02-16T03:29:55.047Z,88.59
2023-02-16T03:30:59.136Z,88.54
2023-02-16T03:32:03.672Z,88.58
2023-02-16T03:33:39.015Z,88.45
2023-02-16T03:34:42.093Z,88.50
2023-02-16T03:35:45.091Z,88.46
2023-02-16T03:37:20.389Z,88.56
2023-02-16T03:38:23.797Z,88.51
2023-02-16T03:39:27.027Z,88.46
2023-02-16T03:41:02.550Z,88.59
2023-02-16T03:42:05.875Z,88.57
2023-02-16T03:43:09.209Z,88.54
2023-02-16T03:44:44.505Z,88.53
2023-02-16T03:45:47.828Z,88.53
2023-02-16T03:46:51.569Z,88.60
2023-02-16T03:48:27.085Z,88.61
2023-02-16T03:49:30.024Z,88.57
2023-02-16T03:50:33.235Z,88.55
2023-02-16T03:52:08.254Z,88.67
2023-02-16T03:53:11.403Z,88.67
2023-02-16T03:54:16.155Z,88.63
2023-02-16T03:55:51.278Z,88.73
2023-02-16T03:56:54.418Z,88.79
2023-02-16T03:57:57.720Z,88.87
2023-02-16T03:59:32.871Z,88.94
2023-02-16T04:00:17.435Z,89.01
2023-02-16T04:01:20.625Z,89.07
2023-02-16T04:02:23.968Z,88.98
2023-02-16T04:03:59.726Z,88.88
2023-02-16T04:05:03.328Z,88.92
2023-02-16T04:06:06.545Z,88.90
2023-02-16T04:07:41.821Z,88.94
2023-02-16T04:08:44.741Z,88.87
2023-02-16T04:09:48.086Z,88.85
2023-02-16T04:11:23.216Z,88.84
2023-02-16T04:12:26.338Z,88.78
2023-02-16T04:13:29.703Z,88.85
2023-02-16T04:15:04.976Z,88.81
2023-02-16T04:16:08.231Z,88.83
2023-02-16T04:17:11.847Z,88.85
2023-02-16T04:18:47.169Z,88.81
2023-02-16T04:19:50.514Z,88.89
2023-02-16T04:20:53.824Z,88.85
2023-02-16T04:22:29.609Z,88.90
2023-02-16T04:23:32.634Z,88.93
2023-02-16T04:24:35.739Z,88.89
2023-02-16T04:26:10.926Z,89.08
2023-02-16T04:27:13.875Z,89.03
2023-02-16T04:28:16.999Z,89.06
2023-02-16T04:29:52.464Z,89.07
2023-02-16T04:30:56.359Z,89.06
2023-02-16T04:32:01.047Z,89.25
2023-02-16T04:33:36.876Z,89.25
2023-02-16T04:34:40.208Z,89.26
2023-02-16T04:35:43.262Z,89.27
2023-02-16T04:37:18.445Z,89.30
2023-02-16T04:38:21.682Z,89.25
2023-02-16T04:39:24.674Z,89.28
2023-02-16T04:40:59.743Z,89.24
2023-02-16T04:42:03.243Z,89.29
2023-02-16T04:43:06.254Z,89.36
2023-02-16T04:44:41.558Z,89.48
2023-02-16T04:45:44.629Z,89.43
2023-02-16T04:46:48.138Z,89.48
2023-02-16T04:48:23.534Z,89.48
2023-02-16T04:49:26.735Z,89.48
2023-02-16T04:50:31.015Z,89.45
2023-02-16T04:52:06.126Z,89.47
2023-02-16T04:53:09.476Z,89.52
2023-02-16T04:54:12.556Z,89.56
2023-02-16T04:55:47.677Z,89.66
2023-02-16T04:56:50.644Z,89.72
2023-02-16T04:57:53.724Z,89.71
2023-02-16T04:59:28.742Z,89.77
2023-02-16T05:00:18.103Z,89.77
2023-02-16T05:01:23.013Z,89.71
2023-02-16T05:02:26.759Z,89.79
2023-02-16T05:04:01.833Z,90.11
2023-02-16T05:05:47.792Z,89.99
2023-02-16T05:06:51.172Z,89.95
2023-02-16T05:07:54.654Z,89.94
2023-02-16T05:09:33.382Z,89.92
2023-02-16T05:10:36.874Z,90.01
2023-02-16T05:11:40.185Z,89.93
2023-02-16T05:13:15.580Z,89.95
2023-02-16T05:14:19.004Z,89.91
2023-02-16T05:15:22.636Z,89.95
2023-02-16T05:16:58.694Z,89.99
2023-02-16T05:18:02.200Z,89.94
2023-02-16T05:19:05.447Z,89.88
2023-02-16T05:20:40.811Z,89.88
2023-02-16T05:21:44.503Z,89.87
2023-02-16T05:22:47.933Z,89.92
2023-02-16T05:24:23.321Z,89.92
2023-02-16T05:25:26.755Z,89.94
2023-02-16T05:26:30.062Z,89.99
2023-02-16T05:28:05.643Z,90.04
2023-02-16T05:29:09.183Z,89.97
2023-02-16T05:30:12.696Z,89.98
2023-02-16T05:31:49.834Z,90.05
2023-02-16T05:32:56.692Z,90.10
2023-02-16T05:33:59.904Z,90.11
2023-02-16T05:35:35.240Z,90.12
2023-02-16T05:36:38.679Z,90.12
2023-02-16T05:37:42.812Z,90.09
2023-02-16T05:39:18.406Z,90.16
2023-02-16T05:40:21.869Z,90.16
2023-02-16T05:41:25.444Z,90.32
2023-02-16T05:43:00.800Z,90.28
2023-02-16T05:44:04.326Z,90.33
2023-02-16T05:45:07.725Z,90.33
2023-02-16T05:46:43.388Z,90.34
2023-02-16T05:47:47.337Z,90.25
2023-02-16T05:48:50.903Z,90.25
2023-02-16T05:50:26.341Z,90.39
2023-02-16T05:51:29.885Z,90.35
2023-02-16T05:52:33.243Z,90.36
2023-02-16T05:54:08.523Z,90.46
2023-02-16T05:55:11.633Z,90.42
2023-02-16T05:56:15.011Z,90.38
2023-02-16T05:57:50.277Z,90.36
2023-02-16T05:58:53.497Z,90.40
2023-02-16T05:59:56.733Z,90.41
2023-02-16T06:00:18.465Z,90.41
2023-02-16T06:01:21.970Z,90.53
2023-02-16T06:02:25.503Z,90.40
2023-02-16T06:04:01.704Z,90.48
2023-02-16T06:05:04.930Z,90.46
2023-02-16T06:06:08.047Z,90.52
2023-02-16T06:07:43.266Z,90.41
2023-02-16T06:08:46.349Z,90.42
2023-02-16T06:09:49.638Z,90.43
2023-02-16T06:11:24.901Z,90.48
2023-02-16T06:12:28.166Z,90.48
2023-02-16T06:13:31.444Z,90.48
2023-02-16T06:15:06.481Z,90.77
2023-02-16T06:16:09.912Z,90.71
2023-02-16T06:17:13.428Z,90.80
2023-02-16T06:18:50.538Z,90.82
2023-02-16T06:19:53.724Z,90.75
2023-02-16T06:20:56.678Z,90.76
2023-02-16T06:22:32.071Z,90.92
2023-02-16T06:23:35.070Z,90.89
2023-02-16T06:24:38.352Z,90.88
2023-02-16T06:26:13.715Z,90.96
2023-02-16T06:27:16.938Z,91.00
2023-02-16T06:28:20.015Z,90.99
2023-02-16T06:29:55.189Z,90.92
2023-02-16T06:30:59.148Z,90.93
2023-02-16T06:32:03.481Z,90.88
2023-02-16T06:33:39.370Z,90.87
2023-02-16T06:34:42.558Z,90.84
2023-02-16T06:35:45.747Z,90.86
2023-02-16T06:37:23.316Z,90.95
2023-02-16T06:38:26.220Z,90.96
2023-02-16T06:39:29.243Z,90.97
2023-02-16T06:41:04.859Z,90.95
2023-02-16T06:42:07.979Z,90.97
2023-02-16T06:43:11.221Z,90.88
2023-02-16T06:44:49.269Z,90.86
2023-02-16T06:45:52.719Z,90.88
2023-02-16T06:46:56.344Z,90.86
2023-02-16T06:48:31.696Z,90.89
2023-02-16T06:49:34.944Z,90.92
2023-02-16T06:50:38.687Z,90.93
2023-02-16T06:52:13.739Z,90.89
2023-02-16T06:53:16.698Z,90.85
2023-02-16T06:54:19.698Z,90.73
2023-02-16T06:55:54.675Z,90.75
2023-02-16T06:56:57.949Z,90.78
2023-02-16T06:58:01.209Z,90.90
2023-02-16T06:59:36.436Z,90.95
2023-02-16T07:00:18.103Z,90.93
2023-02-16T07:01:22.024Z,91.00
2023-02-16T07:02:26.038Z,90.98
2023-02-16T07:04:01.759Z,90.96
2023-02-16T07:05:04.611Z,91.01
2023-02-16T07:06:07.849Z,90.98
2023-02-16T07:07:43.042Z,90.96
2023-02-16T07:08:46.068Z,90.85
2023-02-16T07:09:52.161Z,90.85
2023-02-16T07:11:41.450Z,90.86
2023-02-16T07:12:44.640Z,90.84
2023-02-16T07:13:47.944Z,90.82
2023-02-16T07:15:24.682Z,90.81
2023-02-16T07:16:28.050Z,90.87
2023-02-16T07:17:31.484Z,90.89
2023-02-16T07:19:06.591Z,90.79
2023-02-16T07:20:09.821Z,90.83
2023-02-16T07:21:12.975Z,90.91
2023-02-16T07:22:48.078Z,90.89
2023-02-16T07:23:51.060Z,90.88
2023-02-16T07:24:54.287Z,91.06
2023-02-16T07:26:29.072Z,90.98
2023-02-16T07:27:32.191Z,90.93
2023-02-16T07:28:35.380Z,90.94
2023-02-16T07:30:10.595Z,90.87
2023-02-16T07:31:14.827Z,90.93
2023-02-16T07:32:18.952Z,90.88
2023-02-16T07:33:54.417Z,90.88
2023-02-16T07:34:57.760Z,90.91
2023-02-16T07:36:00.890Z,90.94
2023-02-16T07:37:36.298Z,91.06
2023-02-16T07:38:39.468Z,90.99
2023-02-16T07:39:42.983Z,90.99
2023-02-16T07:41:18.685Z,90.87
2023-02-16T07:42:21.789Z,90.85
2023-02-16T07:43:24.725Z,90.91
2023-02-16T07:44:59.913Z,91.00
2023-02-16T07:46:03.325Z,91.01
2023-02-16T07:47:06.674Z,91.00
2023-02-16T07:48:41.780Z,90.91
2023-02-16T07:49:44.993Z,90.86
2023-02-16T07:50:48.209Z,90.89
2023-02-16T07:52:23.950Z,90.94
2023-02-16T07:53:27.138Z,90.85
2023-02-16T07:54:30.322Z,90.93
2023-02-16T07:56:05.516Z,90.93
2023-02-16T07:57:08.495Z,90.94
2023-02-16T07:58:11.626Z,90.96
2023-02-16T07:59:46.554Z,90.93
2023-02-16T08:00:17.720Z,90.92
2023-02-16T08:01:21.696Z,90.86
2023-02-16T08:02:24.976Z,90.82
2023-02-16T08:04:01.577Z,90.75
2023-02-16T08:05:04.580Z,90.76
2023-02-16T08:06:07.661Z,90.71
2023-02-16T08:07:44.712Z,90.66
2023-02-16T08:08:48.740Z,90.66
2023-02-16T08:09:52.028Z,90.61
2023-02-16T08:11:27.181Z,90.57
2023-02-16T08:12:30.598Z,90.58
2023-02-16T08:13:33.822Z,90.58
2023-02-16T08:15:09.019Z,90.58
2023-02-16T08:16:12.760Z,90.55
2023-02-16T08:17:16.073Z,90.46
2023-02-16T08:18:50.779Z,90.47
2023-02-16T08:19:53.808Z,90.48
2023-02-16T08:21:10.215Z,90.55
2023-02-16T08:22:45.344Z,90.53
2023-02-16T08:23:48.752Z,90.57
2023-02-16T08:24:51.783Z,90.48
2023-02-16T08:26:28.410Z,90.61
2023-02-16T08:27:31.396Z,90.61
2023-02-16T08:28:35.055Z,90.63
2023-02-16T08:30:10.401Z,90.61
2023-02-16T08:31:13.828Z,90.62
2023-02-16T08:32:17.861Z,90.66
2023-02-16T08:33:53.221Z,90.76
2023-02-16T08:34:56.078Z,90.77
2023-02-16T08:35:59.148Z,90.76
2023-02-16T08:37:34.702Z,90.80
2023-02-16T08:38:37.847Z,90.81
2023-02-16T08:39:41.014Z,90.64
2023-02-16T08:41:16.287Z,90.24
2023-02-16T08:42:19.620Z,90.37
2023-02-16T08:43:23.056Z,90.24
2023-02-16T08:44:58.475Z,89.93
2023-02-16T08:46:01.857Z,89.88
2023-02-16T08:47:05.869Z,89.85
2023-02-16T08:48:41.023Z,89.75
2023-02-16T08:49:47.391Z,89.50
2023-02-16T08:50:50.621Z,89.53
2023-02-16T08:52:25.431Z,89.48
2023-02-16T08:53:28.812Z,89.39
2023-02-16T08:54:31.837Z,89.29
2023-02-16T08:56:07.383Z,89.15
2023-02-16T08:57:10.745Z,89.05
2023-02-16T08:58:14.228Z,89.03
2023-02-16T08:59:49.757Z,88.98
2023-02-16T09:00:18.400Z,88.93
2023-02-16T09:01:21.658Z,88.89
2023-02-16T09:02:25.045Z,88.93
2023-02-16T09:04:00.564Z,88.85
2023-02-16T09:05:03.468Z,88.80
2023-02-16T09:06:06.992Z,88.79
2023-02-16T09:07:42.054Z,88.69
2023-02-16T09:08:45.263Z,88.68
2023-02-16T09:09:48.520Z,88.67
2023-02-16T09:11:23.514Z,88.56
2023-02-16T09:12:26.576Z,88.64
2023-02-16T09:13:29.876Z,88.60
2023-02-16T09:15:05.447Z,88.52
2023-02-16T09:16:09.405Z,88.48
2023-02-16T09:17:13.050Z,88.42
2023-02-16T09:18:48.353Z,88.45
2023-02-16T09:19:51.510Z,88.50
2023-02-16T09:20:54.598Z,88.63
2023-02-16T09:22:29.866Z,88.58
2023-02-16T09:23:33.652Z,88.54
2023-02-16T09:24:36.977Z,88.49
2023-02-16T09:26:12.137Z,88.41
2023-02-16T09:27:15.200Z,88.23
2023-02-16T09:28:18.324Z,88.10
2023-02-16T09:29:53.794Z,88.05
2023-02-16T09:30:57.278Z,88.08
2023-02-16T09:32:01.647Z,88.04
2023-02-16T09:33:36.951Z,87.75
2023-02-16T09:34:40.028Z,87.79
2023-02-16T09:35:43.357Z,87.89
2023-02-16T09:37:19.058Z,87.65
2023-02-16T09:38:22.280Z,87.69
2023-02-16T09:39:25.567Z,87.69
2023-02-16T09:41:00.275Z,87.48
2023-02-16T09:42:03.638Z,87.60
2023-02-16T09:43:06.817Z,87.60
2023-02-16T09:44:42.055Z,87.46
2023-02-16T09:45:45.347Z,87.42
2023-02-16T09:46:49.073Z,87.42
2023-02-16T09:48:24.545Z,87.41
2023-02-16T09:49:28.088Z,87.31
2023-02-16T09:50:58.023Z,87.29
2023-02-16T09:52:46.250Z,87.15
2023-02-16T09:53:49.991Z,87.20
2023-02-16T09:54:53.123Z,87.29
2023-02-16T09:56:28.101Z,87.19
2023-02-16T09:57:31.090Z,87.26
2023-02-16T09:58:34.190Z,87.25
2023-02-16T10:00:17.965Z,87.21
2023-02-16T10:01:21.052Z,87.00
2023-02-16T10:02:24.782Z,86.95
2023-02-16T10:04:00.742Z,87.14
2023-02-16T10:05:04.154Z,87.14
2023-02-16T10:06:07.953Z,86.94
2023-02-16T10:07:43.276Z,86.84
2023-02-16T10:08:46.425Z,87.06
2023-02-16T10:09:49.877Z,87.34
2023-02-16T10:11:26.807Z,87.77
2023-02-16T10:12:29.999Z,87.97
2023-02-16T10:13:33.079Z,88.28
2023-02-16T10:15:08.081Z,88.77
2023-02-16T10:16:11.192Z,88.98
2023-02-16T10:17:14.302Z,89.19
2023-02-16T10:18:49.265Z,89.78
2023-02-16T10:19:52.500Z,89.67
2023-02-16T10:20:55.688Z,89.88
2023-02-16T10:22:31.663Z,89.79
2023-02-16T10:23:34.786Z,89.88
2023-02-16T10:24:38.071Z,89.94
2023-02-16T10:26:13.372Z,90.11
2023-02-16T10:27:16.618Z,90.28
2023-02-16T10:28:22.626Z,90.63
2023-02-16T10:29:58.101Z,90.66
2023-02-16T10:31:01.942Z,90.71
2023-02-16T10:32:06.897Z,90.73
2023-02-16T10:33:42.195Z,90.60
2023-02-16T10:34:45.361Z,90.74
2023-02-16T10:35:48.345Z,90.93
2023-02-16T10:37:23.309Z,91.01
2023-02-16T10:38:26.603Z,91.10
2023-02-16T10:39:29.828Z,91.13
2023-02-16T10:41:05.605Z,91.39
2023-02-16T10:42:09.259Z,91.36
2023-02-16T10:43:12.355Z,91.49
2023-02-16T10:44:47.495Z,91.95
2023-02-16T10:45:55.151Z,92.11
2023-02-16T10:46:58.379Z,92.14
2023-02-16T10:48:33.404Z,92.38
2023-02-16T10:49:36.604Z,92.35
2023-02-16T10:50:39.634Z,92.37
2023-02-16T10:52:17.271Z,92.44
2023-02-16T10:53:20.498Z,92.77
2023-02-16T10:54:23.852Z,92.86
2023-02-16T10:55:59.009Z,92.93
2023-02-16T10:57:02.092Z,93.06
2023-02-16T10:58:05.663Z,92.95
2023-02-16T10:59:41.321Z,93.03
2023-02-16T11:00:17.819Z,93.03
2023-02-16T11:01:20.973Z,93.16
2023-02-16T11:02:24.531Z,93.29
2023-02-16T11:03:59.683Z,93.30
2023-02-16T11:05:03.833Z,93.51
2023-02-16T11:06:07.024Z,93.57
2023-02-16T11:07:42.114Z,93.64
2023-02-16T11:08:45.008Z,93.78
2023-02-16T11:09:48.100Z,93.60
2023-02-16T11:11:23.744Z,93.74
2023-02-16T11:12:27.049Z,93.68
2023-02-16T11:13:30.480Z,93.64
2023-02-16T11:15:05.768Z,93.85
2023-02-16T11:16:08.977Z,93.79
2023-02-16T11:17:12.524Z,93.85
2023-02-16T11:18:47.811Z,94.12
2023-02-16T11:19:51.022Z,94.22
2023-02-16T11:20:54.396Z,94.21
2023-02-16T11:22:29.620Z,94.31
2023-02-16T11:23:32.881Z,94.44
2023-02-16T11:24:36.092Z,94.42
2023-02-16T11:26:11.217Z,94.53
2023-02-16T11:27:14.520Z,94.72
2023-02-16T11:28:17.743Z,94.67
2023-02-16T11:29:56.363Z,94.78
2023-02-16T11:30:59.957Z,94.77
2023-02-16T11:32:04.449Z,94.92
2023-02-16T11:33:39.908Z,94.86
2023-02-16T11:34:46.350Z,95.08
2023-02-16T11:35:49.687Z,94.99
2023-02-16T11:37:25.061Z,95.15
2023-02-16T11:38:28.308Z,95.13
2023-02-16T11:39:31.509Z,95.21
2023-02-16T11:41:06.866Z,95.24
2023-02-16T11:42:10.209Z,95.33
2023-02-16T11:43:13.405Z,95.48
2023-02-16T11:44:48.604Z,95.59
2023-02-16T11:45:51.564Z,95.60
2023-02-16T11:46:55.341Z,95.56
2023-02-16T11:48:30.782Z,95.60
2023-02-16T11:49:34.136Z,95.60
2023-02-16T11:50:38.047Z,95.50
2023-02-16T11:52:13.469Z,95.45
2023-02-16T11:53:16.752Z,95.50
2023-02-16T11:54:19.846Z,95.47
2023-02-16T11:55:55.365Z,95.50
2023-02-16T11:56:58.768Z,95.68
2023-02-16T11:58:02.290Z,95.76
2023-02-16T11:59:37.598Z,95.68
2023-02-16T12:00:17.578Z,95.64
2023-02-16T12:01:20.748Z,95.71
2023-02-16T12:02:23.924Z,95.81
2023-02-16T12:03:59.169Z,95.95
2023-02-16T12:05:02.670Z,96.08
2023-02-16T12:06:06.160Z,96.08
2023-02-16T12:07:41.591Z,96.06
2023-02-16T12:08:44.957Z,95.99
2023-02-16T12:09:48.210Z,95.81
2023-02-16T12:11:23.268Z,95.75
2023-02-16T12:12:26.245Z,95.98
2023-02-16T12:13:29.381Z,95.75
2023-02-16T12:15:04.413Z,95.87
2023-02-16T12:16:08.946Z,95.83
2023-02-16T12:17:12.681Z,95.77
2023-02-16T12:18:48.125Z,95.86
2023-02-16T12:19:51.089Z,95.87
2023-02-16T12:20:54.497Z,95.84
2023-02-16T12:22:30.048Z,95.86
2023-02-16T12:23:33.442Z,95.80
2023-02-16T12:24:36.747Z,95.92
2023-02-16T12:26:12.666Z,95.75
2023-02-16T12:27:15.897Z,95.71
2023-02-16T12:28:19.232Z,95.58
2023-02-16T12:29:54.558Z,95.55
2023-02-16T12:30:58.127Z,95.50
2023-02-16T12:32:02.005Z,95.41
2023-02-16T12:33:37.261Z,95.43
2023-02-16T12:34:41.141Z,95.37
2023-02-16T12:35:46.304Z,95.48
2023-02-16T12:37:22.316Z,95.43
2023-02-16T12:38:25.635Z,95.53
2023-02-16T12:39:28.750Z,95.25
2023-02-16T12:41:04.254Z,95.12
2023-02-16T12:42:07.674Z,95.15
2023-02-16T12:43:10.787Z,95.34
2023-02-16T12:44:46.031Z,95.51
2023-02-16T12:45:49.467Z,95.45
2023-02-16T12:46:53.822Z,95.30
2023-02-16T12:48:29.120Z,95.13
2023-02-16T12:49:32.480Z,95.19
2023-02-16T12:50:35.803Z,95.16
2023-02-16T12:52:11.007Z,95.11
2023-02-16T12:53:14.276Z,95.15
2023-02-16T12:54:17.669Z,95.22
2023-02-16T12:55:53.005Z,95.06
2023-02-16T12:56:56.580Z,95.04
2023-02-16T12:57:59.860Z,94.92
2023-02-16T12:59:34.935Z,95.19
2023-02-16T13:00:18.435Z,95.10
2023-02-16T13:01:22.039Z,94.88
2023-02-16T13:02:25.392Z,94.68
2023-02-16T13:04:01.000Z,94.85
2023-02-16T13:05:04.098Z,95.06
2023-02-16T13:06:07.563Z,94.71
2023-02-16T13:07:42.916Z,94.22
2023-02-16T13:08:46.075Z,94.16
2023-02-16T13:09:49.564Z,93.89
2023-02-16T13:11:24.880Z,93.83
2023-02-16T13:12:28.482Z,94.09
2023-02-16T13:13:31.988Z,94.16
2023-02-16T13:15:07.254Z,94.11
2023-02-16T13:16:24.116Z,93.99
2023-02-16T13:17:32.993Z,93.94
2023-02-16T13:19:08.445Z,93.91
2023-02-16T13:20:11.873Z,93.93
2023-02-16T13:21:15.052Z,94.04
2023-02-16T13:23:04.648Z,94.21
2023-02-16T13:24:07.688Z,94.10
2023-02-16T13:25:11.099Z,93.78
2023-02-16T13:26:48.479Z,93.48
2023-02-16T13:27:52.017Z,93.33
2023-02-16T13:28:55.854Z,93.18
2023-02-16T13:30:32.207Z,93.08
2023-02-16T13:31:36.761Z,93.13
2023-02-16T13:32:40.880Z,92.84
2023-02-16T13:34:16.411Z,92.58
2023-02-16T13:35:19.785Z,92.64
2023-02-16T13:36:23.269Z,92.79
2023-02-16T13:37:58.116Z,92.75
2023-02-16T13:39:01.376Z,92.75
2023-02-16T13:40:04.671Z,92.54
2023-02-16T13:41:39.537Z,92.50
2023-02-16T13:42:42.675Z,92.48
2023-02-16T13:43:45.703Z,92.39
2023-02-16T13:45:21.174Z,92.67
2023-02-16T13:46:24.805Z,92.76
2023-02-16T13:47:28.391Z,92.59
2023-02-16T13:49:03.841Z,92.51
2023-02-16T13:50:07.344Z,92.51
2023-02-16T13:51:11.199Z,92.35
2023-02-16T13:52:46.627Z,92.31
2023-02-16T13:53:49.783Z,92.09
2023-02-16T13:54:53.184Z,92.23
2023-02-16T13:56:28.764Z,92.39
2023-02-16T13:57:32.149Z,92.41
2023-02-16T13:58:37.933Z,92.30
2023-02-16T14:00:18.016Z,92.27
2023-02-16T14:01:21.335Z,92.32
2023-02-16T14:02:24.903Z,92.27
2023-02-16T14:04:04.092Z,92.37
2023-02-16T14:05:07.713Z,92.36
2023-02-16T14:06:11.816Z,92.38
2023-02-16T14:07:47.159Z,92.44
2023-02-16T14:08:50.697Z,92.36
2023-02-16T14:09:54.312Z,92.20
2023-02-16T14:11:29.555Z,92.16
2023-02-16T14:12:33.028Z,92.11
2023-02-16T14:13:36.592Z,92.07
2023-02-16T14:15:12.139Z,91.90
2023-02-16T14:16:15.952Z,91.91
2023-02-16T14:17:19.521Z,91.85
2023-02-16T14:18:54.922Z,91.58
2023-02-16T14:19:58.249Z,91.48
2023-02-16T14:21:01.476Z,91.45
2023-02-16T14:22:37.770Z,91.40
2023-02-16T14:23:41.271Z,91.36
2023-02-16T14:24:44.706Z,91.57
2023-02-16T14:26:20.675Z,91.70
2023-02-16T14:27:24.051Z,91.61
2023-02-16T14:28:29.827Z,91.74
2023-02-16T14:30:05.553Z,91.74
2023-02-16T14:31:10.587Z,91.59
2023-02-16T14:32:14.613Z,91.65
2023-02-16T14:33:50.075Z,91.41
2023-02-16T14:34:53.212Z,91.04
2023-02-16T14:35:56.296Z,91.01
2023-02-16T14:37:31.930Z,90.93
2023-02-16T14:38:35.225Z,90.88
2023-02-16T14:40:04.002Z,90.90
2023-02-16T14:41:42.054Z,90.80
2023-02-16T14:42:45.488Z,90.73
2023-02-16T14:43:48.733Z,90.61
2023-02-16T14:45:25.367Z,90.44
2023-02-16T14:46:28.727Z,90.54
2023-02-16T14:47:32.062Z,90.51
2023-02-16T14:49:07.414Z,90.21
2023-02-16T14:50:10.613Z,90.27
2023-02-16T14:51:15.833Z,90.48
2023-02-16T14:52:51.182Z,90.41
2023-02-16T14:53:54.580Z,90.36
2023-02-16T14:54:58.182Z,90.23
2023-02-16T14:56:34.115Z,90.31
2023-02-16T14:57:37.348Z,90.50
2023-02-16T14:58:40.717Z,90.39
2023-02-16T15:00:17.696Z,90.48
2023-02-16T15:01:20.960Z,90.53
2023-02-16T15:02:24.579Z,90.39
2023-02-16T15:04:01.597Z,90.48
2023-02-16T15:05:04.804Z,90.53
2023-02-16T15:06:08.292Z,90.32
2023-02-16T15:07:43.716Z,90.26
2023-02-16T15:08:48.817Z,90.33
2023-02-16T15:09:52.035Z,90.27
2023-02-16T15:11:27.349Z,90.23
2023-02-16T15:12:30.657Z,90.30
2023-02-16T15:13:34.216Z,90.31
2023-02-16T15:15:09.528Z,90.40
2023-02-16T15:16:13.867Z,90.38
2023-02-16T15:17:17.416Z,90.42
2023-02-16T15:18:52.599Z,90.47
2023-02-16T15:19:55.649Z,90.52
2023-02-16T15:20:58.575Z,90.49
2023-02-16T15:22:33.730Z,90.37
2023-02-16T15:23:36.698Z,90.41
2023-02-16T15:24:39.858Z,90.55
2023-02-16T15:26:15.052Z,90.62
2023-02-16T15:27:18.240Z,90.44
2023-02-16T15:28:21.594Z,90.50
2023-02-16T15:29:56.577Z,90.53
2023-02-16T15:31:00.358Z,90.76
2023-02-16T15:32:05.315Z,90.69
2023-02-16T15:33:40.725Z,90.79
2023-02-16T15:34:44.132Z,90.66
2023-02-16T15:35:47.067Z,90.59
2023-02-16T15:37:22.479Z,90.52
2023-02-16T15:38:25.480Z,90.72
2023-02-16T15:39:42.694Z,90.79
2023-02-16T15:41:53.758Z,90.55
2023-02-16T15:42:57.651Z,90.58
2023-02-16T15:44:00.585Z,90.55
2023-02-16T15:45:36.060Z,90.58
2023-02-16T15:46:39.538Z,90.59
2023-02-16T15:47:45.853Z,90.58
2023-02-16T15:49:21.349Z,90.53
2023-02-16T15:50:24.591Z,90.55